Time;durP1;ratioP1;P1;durP2;ratioP2;P2;SDS_P1;SDS_P2;PMS_P1;PMS_P2;Temp;Humidity;BMP_temperature;BMP_pressure;BME280_temperature;BME280_humidity;BME280_pressure;Samples;Min_cycle;Max_cycle;Signal;HPM_P1;HPM_P2
2021/12/17 00:02:16;;;;;;;266.75;43.90;;;;;;;7.61;100.00;103676.22;5007521;28;20501;-69
2021/12/17 00:04:38;;;;;;;287.00;43.38;;;;;;;7.59;100.00;103674.53;4993521;28;20041;-69
2021/12/17 00:07:10;;;;;;;282.67;42.30;;;;;;;7.55;100.00;103662.47;4990229;28;20779;-70
2021/12/17 00:09:39;;;;;;;304.63;43.63;;;;;;;7.55;100.00;103666.97;4992741;28;20030;-70
2021/12/17 00:12:10;;;;;;;267.05;42.08;;;;;;;7.54;100.00;103659.97;4991914;28;20552;-70
2021/12/17 00:14:38;;;;;;;416.27;44.67;;;;;;;7.50;100.00;103659.44;4992643;28;20229;-70
2021/12/17 00:17:08;;;;;;;246.30;38.85;;;;;;;7.50;100.00;103655.94;4992591;28;20037;-70
2021/12/17 00:19:59;;;;;;;261.88;38.00;;;;;;;7.43;100.00;103647.69;4990839;28;20067;-70
2021/12/17 00:49:54;;;;;;;255.30;40.03;;;;;;;7.47;100.00;103659.72;5000471;28;20457;-70
2021/12/17 00:52:20;;;;;;;271.30;41.05;;;;;;;7.42;100.00;103645.19;4991690;28;20033;-70
2021/12/17 00:54:48;;;;;;;260.20;39.88;;;;;;;7.48;100.00;103660.56;4990348;28;20049;-70
2021/12/17 00:57:19;;;;;;;287.75;40.42;;;;;;;7.50;100.00;103662.13;4990980;28;20500;-70
2021/12/17 00:59:49;;;;;;;247.95;40.53;;;;;;;7.52;100.00;103662.78;4991404;28;20513;-69
2021/12/17 01:02:17;;;;;;;257.17;37.58;;;;;;;7.52;100.00;103661.94;4991492;28;20037;-69
2021/12/17 01:04:50;;;;;;;269.08;38.42;;;;;;;7.45;100.00;103661.72;4990931;28;20060;-70
2021/12/17 01:07:19;;;;;;;233.23;36.63;;;;;;;7.48;100.00;103660.56;4995320;28;20037;-69
2021/12/17 01:09:45;;;;;;;300.45;37.03;;;;;;;7.43;100.00;103658.38;4990984;28;20158;-69
2021/12/17 01:12:12;;;;;;;255.15;35.33;;;;;;;7.43;100.00;103653.03;4989949;28;20040;-69
2021/12/17 01:14:40;;;;;;;297.08;37.63;;;;;;;7.41;100.00;103649.69;4990848;28;20103;-70
2021/12/17 01:17:08;;;;;;;271.63;37.30;;;;;;;7.44;100.00;103648.53;5006478;28;20587;-70
2021/12/17 01:25:04;;;;;;;224.88;36.67;;;;;;;7.34;100.00;103645.13;4998321;28;20033;-69
2021/12/17 01:35:48;;;;;;;243.40;38.35;;;;;;;7.42;100.00;103662.06;4996324;28;20091;-69
2021/12/17 01:43:12;;;;;;;224.63;36.50;;;;;;;7.36;100.00;103659.16;5005558;28;20490;-69
2021/12/17 01:45:41;;;;;;;223.88;36.25;;;;;;;7.41;100.00;103673.72;4990565;28;20030;-69
2021/12/17 01:48:15;;;;;;;232.95;36.95;;;;;;;7.37;100.00;103669.69;4998789;28;20037;-69
2021/12/17 01:56:38;;;;;;;332.73;38.35;;;;;;;7.34;100.00;103675.34;4991477;28;20060;-70
2021/12/17 02:01:54;;;;;;;243.13;32.22;;;;;;;7.34;100.00;103678.00;5002935;28;20041;-69
2021/12/17 02:04:23;;;;;;;223.30;33.20;;;;;;;7.35;100.00;103686.84;4989816;28;20513;-69
2021/12/17 02:06:51;;;;;;;223.85;32.17;;;;;;;7.36;100.00;103692.03;4990300;28;20107;-69
2021/12/17 02:12:22;;;;;;;160.15;28.80;;;;;;;7.37;100.00;103711.56;4990457;28;20070;-69
2021/12/17 02:29:28;;;;;;;;;;;;;;;7.13;100.00;103674.81;4989511;28;20456;-70
2021/12/17 02:31:58;;;;;;;70.25;16.52;;;;;;;7.18;100.00;103685.88;5001699;28;19921;-70
2021/12/17 02:37:17;;;;;;;70.07;16.48;;;;;;;7.11;100.00;103684.81;5004842;28;20033;-70
2021/12/17 02:47:40;;;;;;;73.03;18.00;;;;;;;7.18;100.00;103681.38;4989613;28;20044;-69
2021/12/17 02:50:07;;;;;;;75.70;17.75;;;;;;;7.16;100.00;103679.81;4998786;28;20414;-69
2021/12/17 02:52:40;;;;;;;65.55;17.25;;;;;;;7.17;100.00;103670.84;4995636;28;20053;-70
2021/12/17 02:55:06;;;;;;;90.25;17.95;;;;;;;7.16;100.00;103672.66;4989789;28;20646;-70
2021/12/17 02:57:35;;;;;;;81.13;17.13;;;;;;;7.15;100.00;103668.31;4990299;28;20042;-70
2021/12/17 03:00:06;;;;;;;90.18;18.02;;;;;;;7.17;100.00;103668.19;4998296;28;20286;-69
2021/12/17 03:02:33;;;;;;;81.75;17.70;;;;;;;7.17;100.00;103660.16;4990501;28;20033;-69
2021/12/17 03:04:59;;;;;;;79.22;17.17;;;;;;;7.19;100.00;103666.19;4982131;28;20026;-69
2021/12/17 03:07:24;;;;;;;105.60;16.48;;;;;;;7.18;100.00;103659.16;4990249;28;20064;-69
2021/12/17 03:12:27;;;;;;;95.28;17.92;;;;;;;7.14;100.00;103652.44;4990156;28;20025;-70
2021/12/17 03:26:03;;;;;;;92.60;16.17;;;;;;;7.12;100.00;103641.91;4992575;28;20036;-70
2021/12/17 03:28:30;;;;;;;85.43;15.60;;;;;;;7.14;100.00;103637.25;4995721;28;20481;-76
2021/12/17 03:30:56;;;;;;;81.40;14.98;;;;;;;7.15;100.00;103632.75;4995450;28;20029;-76
2021/12/17 03:33:22;;;;;;;62.17;14.35;;;;;;;7.08;100.00;103637.88;4994723;28;20033;-75
2021/12/17 03:35:49;;;;;;;58.05;14.07;;;;;;;7.13;100.00;103640.09;4994886;28;20038;-75
2021/12/17 03:38:19;;;;;;;65.72;14.07;;;;;;;7.14;100.00;103637.25;4996249;28;20030;-75
2021/12/17 03:40:46;;;;;;;59.03;13.90;;;;;;;7.16;100.00;103650.44;5000204;28;20116;-74
2021/12/17 03:43:13;;;;;;;59.00;12.80;;;;;;;7.13;100.00;103653.44;5009927;28;20029;-75
2021/12/17 03:45:40;;;;;;;51.00;13.40;;;;;;;7.17;100.00;103657.50;4994861;28;20686;-75
2021/12/17 03:48:08;;;;;;;53.08;13.93;;;;;;;7.20;100.00;103649.16;5010082;28;20040;-75
2021/12/17 03:50:36;;;;;;;50.63;12.48;;;;;;;7.25;100.00;103650.41;4998426;28;20034;-75
2021/12/17 03:53:03;;;;;;;56.90;14.10;;;;;;;7.22;100.00;103656.03;5003445;28;20556;-75
2021/12/17 03:55:31;;;;;;;55.63;13.35;;;;;;;7.19;100.00;103650.16;4992650;28;20049;-75
2021/12/17 03:58:02;;;;;;;58.65;13.82;;;;;;;7.19;100.00;103656.34;4996903;28;20184;-76
2021/12/17 04:00:29;;;;;;;51.33;12.80;;;;;;;7.22;100.00;103660.53;4997428;28;20029;-76
2021/12/17 04:02:57;;;;;;;56.47;13.70;;;;;;;7.23;100.00;103651.53;4991258;28;20100;-71
2021/12/17 04:05:23;;;;;;;50.40;13.38;;;;;;;7.23;100.00;103652.34;5002022;28;20030;-70
2021/12/17 04:07:51;;;;;;;53.53;13.18;;;;;;;7.23;100.00;103656.84;4997776;28;20072;-70
2021/12/17 04:10:18;;;;;;;50.83;14.02;;;;;;;7.24;100.00;103658.53;4993349;28;20034;-70
2021/12/17 04:15:33;;;;;;;53.80;13.32;;;;;;;7.25;100.00;103654.91;4998920;28;20547;-70
2021/12/17 04:17:59;;;;;;;45.88;13.05;;;;;;;7.29;100.00;103656.25;4992249;28;20046;-70
2021/12/17 04:20:24;;;;;;;44.95;12.65;;;;;;;7.28;100.00;103663.44;4993284;28;20109;-70
2021/12/17 04:22:51;;;;;;;60.05;13.38;;;;;;;7.19;100.00;103645.66;4993634;28;20192;-70
2021/12/17 04:25:16;;;;;;;44.97;12.48;;;;;;;7.30;100.00;103657.94;4993292;28;20228;-70
2021/12/17 04:27:44;;;;;;;50.15;13.13;;;;;;;7.27;100.00;103655.56;5007201;28;20504;-70
2021/12/17 04:30:12;;;;;;;43.70;11.98;;;;;;;7.19;100.00;103642.16;4997175;28;20414;-70
2021/12/17 04:32:40;;;;;;;47.20;12.32;;;;;;;7.27;100.00;103658.25;4995247;28;20143;-70
2021/12/17 04:35:10;;;;;;;44.97;12.10;;;;;;;7.30;100.00;103658.75;4990150;28;20137;-70
2021/12/17 04:37:36;;;;;;;45.95;13.13;;;;;;;7.30;100.00;103658.75;4991010;28;20037;-70
2021/12/17 04:40:04;;;;;;;41.17;10.80;;;;;;;7.30;100.00;103652.59;4991647;28;20041;-70
2021/12/17 04:43:40;;;;;;;37.03;11.05;;;;;;;7.25;100.00;103647.72;4989089;28;20375;-70
2021/12/17 04:45:28;;;;;;;38.15;11.77;;;;;;;7.29;100.00;103653.59;4988609;28;20088;-70
2021/12/17 04:59:15;;;;;;;35.15;11.45;;;;;;;7.23;100.00;103630.16;4962487;28;20041;-70
2021/12/17 05:01:43;;;;;;;44.83;13.05;;;;;;;7.23;100.00;103640.84;4973076;28;20103;-69
2021/12/17 05:04:11;;;;;;;42.85;12.20;;;;;;;7.24;100.00;103638.00;5005318;28;20140;-70
2021/12/17 05:06:41;;;;;;;39.10;12.35;;;;;;;7.24;100.00;103638.00;4990383;28;20039;-70
2021/12/17 05:09:22;;;;;;;35.40;12.48;;;;;;;7.22;100.00;103639.16;4989426;28;20090;-70
2021/12/17 05:19:57;;;;;;;40.63;13.27;;;;;;;7.28;100.00;103644.72;4991245;28;20034;-71
2021/12/17 05:22:24;;;;;;;42.42;14.88;;;;;;;7.36;100.00;103646.63;4990976;28;20038;-70
2021/12/17 05:24:50;;;;;;;45.28;14.88;;;;;;;7.28;100.00;103638.56;4992209;28;20033;-70
2021/12/17 05:27:18;;;;;;;43.58;15.48;;;;;;;7.35;100.00;103662.81;4991266;28;20042;-70
2021/12/17 05:29:45;;;;;;;37.78;14.30;;;;;;;7.38;100.00;103655.31;4994811;28;20038;-70
2021/12/17 05:32:10;;;;;;;41.47;14.85;;;;;;;7.37;100.00;103650.97;4991034;28;20056;-69
2021/12/17 05:34:38;;;;;;;39.60;15.73;;;;;;;7.42;100.00;103658.53;4991781;28;20030;-69
2021/12/17 05:37:04;;;;;;;43.65;17.35;;;;;;;7.44;100.00;103660.06;4997104;28;20765;-70
2021/12/17 05:39:32;;;;;;;42.20;17.02;;;;;;;7.47;100.00;103657.06;4991487;28;20101;-69
2021/12/17 05:41:58;;;;;;;41.58;16.38;;;;;;;7.50;100.00;103659.44;4994159;28;20052;-69
2021/12/17 05:44:26;;;;;;;42.15;15.43;;;;;;;7.47;100.00;103658.91;4994902;28;20174;-70
2021/12/17 05:46:51;;;;;;;46.33;16.20;;;;;;;7.50;100.00;103667.47;4991059;28;20034;-70
2021/12/17 05:49:19;;;;;;;43.42;14.30;;;;;;;7.49;100.00;103662.25;4988505;28;20052;-70
2021/12/17 05:51:48;;;;;;;46.08;15.05;;;;;;;7.48;100.00;103658.72;4979428;28;21367;-70
2021/12/17 05:54:17;;;;;;;49.97;14.98;;;;;;;7.44;100.00;103648.53;4997825;28;20043;-70
2021/12/17 05:56:46;;;;;;;48.53;15.80;;;;;;;7.46;100.00;103660.72;4991680;28;20042;-69
2021/12/17 05:59:17;;;;;;;48.67;15.95;;;;;;;7.47;100.00;103658.91;4993383;28;20123;-70
2021/12/17 06:01:44;;;;;;;51.08;17.10;;;;;;;7.48;100.00;103671.25;4996737;28;20094;-69
2021/12/17 06:04:10;;;;;;;53.88;17.33;;;;;;;7.55;100.00;103669.66;4990994;28;20042;-70
2021/12/17 06:06:38;;;;;;;55.90;17.83;;;;;;;7.55;100.00;103678.50;4991185;28;20158;-70
2021/12/17 06:09:09;;;;;;;55.20;18.05;;;;;;;7.47;100.00;103669.59;4991016;28;20088;-70
2021/12/17 06:11:39;;;;;;;60.00;18.00;;;;;;;7.47;100.00;103670.41;4990440;28;20034;-70
2021/12/17 06:14:05;;;;;;;40.40;14.23;;;;;;;7.49;100.00;103667.59;4995717;28;20126;-69
2021/12/17 06:16:33;;;;;;;59.45;16.98;;;;;;;7.48;100.00;103665.91;4978262;28;20053;-69
2021/12/17 06:19:00;;;;;;;53.58;16.60;;;;;;;7.51;100.00;103676.31;4991456;28;20208;-69
2021/12/17 06:21:26;;;;;;;60.28;17.35;;;;;;;7.46;100.00;103674.09;4991057;28;20037;-70
2021/12/17 06:23:51;;;;;;;60.22;17.98;;;;;;;7.47;100.00;103686.44;4988748;28;20313;-70
2021/12/17 06:26:17;;;;;;;60.35;18.70;;;;;;;7.40;100.00;103676.53;4988211;28;20414;-69
2021/12/17 06:28:43;;;;;;;51.42;16.13;;;;;;;7.47;100.00;103693.63;4990457;28;20032;-68
2021/12/17 06:31:08;;;;;;;52.80;16.20;;;;;;;7.49;100.00;103705.84;4988956;28;20135;-69
2021/12/17 06:33:34;;;;;;;58.28;17.15;;;;;;;7.51;100.00;103703.03;4989451;28;20511;-69
2021/12/17 06:35:59;;;;;;;59.58;16.17;;;;;;;7.48;100.00;103698.81;4990730;28;20468;-69
2021/12/17 06:38:25;;;;;;;58.70;16.90;;;;;;;7.44;100.00;103688.59;4999179;28;20140;-69
2021/12/17 06:40:53;;;;;;;55.28;15.57;;;;;;;7.49;100.00;103705.84;4990055;28;20092;-69
2021/12/17 06:43:25;;;;;;;53.42;15.32;;;;;;;7.47;100.00;103701.63;4990022;28;20722;-69
2021/12/17 06:45:59;;;;;;;51.88;13.60;;;;;;;7.53;100.00;103712.56;4989742;28;20113;-69
2021/12/17 06:48:28;;;;;;;62.67;14.48;;;;;;;7.48;100.00;103704.16;4989971;28;20033;-69
2021/12/17 06:59:43;;;;;;;62.47;13.98;;;;;;;7.44;100.00;103697.44;4994188;28;20272;-69
2021/12/17 07:10:18;;;;;;;58.20;12.43;;;;;;;7.36;100.00;103705.41;4993004;28;20030;-69
2021/12/17 07:21:15;;;;;;;46.63;11.63;;;;;;;7.28;100.00;103714.16;4993748;28;20089;-70
2021/12/17 07:34:40;;;;;;;58.15;11.68;;;;;;;7.39;100.00;103737.13;4993183;28;20046;-68
2021/12/17 07:39:35;;;;;;;57.20;13.30;;;;;;;7.44;100.00;103732.19;4992741;28;20045;-70
2021/12/17 07:42:00;;;;;;;54.22;11.55;;;;;;;7.40;100.00;103738.81;4993079;28;20096;-71
2021/12/17 07:44:26;;;;;;;50.30;11.68;;;;;;;7.36;100.00;103749.97;5008280;28;20709;-70
2021/12/17 07:46:51;;;;;;;45.40;11.73;;;;;;;7.12;100.00;103718.50;4990862;28;20029;-71
2021/12/17 07:49:27;;;;;;;54.03;12.07;;;;;;;7.35;100.00;103735.78;4991418;28;22097;-72
2021/12/17 07:51:57;;;;;;;47.60;12.30;;;;;;;7.37;100.00;103739.13;4995842;28;20087;-71
2021/12/17 07:54:23;;;;;;;54.30;12.25;;;;;;;7.41;100.00;103745.00;4992908;28;20048;-71
2021/12/17 07:56:48;;;;;;;45.85;11.75;;;;;;;7.36;100.00;103752.63;4993209;28;20042;-70
2021/12/17 07:59:16;;;;;;;48.33;11.00;;;;;;;7.36;100.00;103756.16;4992865;28;20045;-71
2021/12/17 08:01:42;;;;;;;40.63;10.95;;;;;;;7.40;100.00;103752.16;4992524;28;20044;-71
2021/12/17 08:04:10;;;;;;;54.63;12.32;;;;;;;7.39;100.00;103744.31;5000412;28;20045;-70
2021/12/17 08:06:37;;;;;;;50.45;12.35;;;;;;;7.34;100.00;103739.44;4993469;28;21911;-71
2021/12/17 08:09:04;;;;;;;43.17;12.15;;;;;;;7.36;100.00;103737.44;4993132;28;20034;-70
2021/12/17 08:11:38;;;;;;;52.70;12.95;;;;;;;7.38;100.00;103743.47;5001618;28;20080;-71
2021/12/17 08:14:10;;;;;;;43.53;12.18;;;;;;;7.39;100.00;103739.81;4992775;28;20242;-71
2021/12/17 08:26:57;;;;;;;46.00;12.27;;;;;;;7.50;100.00;103739.59;4992999;28;20034;-69
2021/12/17 08:29:42;;;;;;;51.05;12.77;;;;;;;7.59;100.00;103735.16;4991799;28;20057;-69
2021/12/17 08:32:08;;;;;;;44.78;12.27;;;;;;;7.62;100.00;103736.66;5007222;28;20468;-69
2021/12/17 08:34:34;;;;;;;51.78;12.70;;;;;;;7.61;100.00;103737.66;4997883;28;20559;-70
2021/12/17 08:37:03;;;;;;;52.70;12.63;;;;;;;7.58;100.00;103730.81;5006697;28;20048;-72
2021/12/17 08:39:34;;;;;;;54.65;13.18;;;;;;;7.55;100.00;103734.59;4992873;28;20049;-71
2021/12/17 08:42:00;;;;;;;52.33;13.68;;;;;;;7.58;100.00;103720.97;4992484;28;20049;-71
2021/12/17 08:44:28;;;;;;;53.90;13.35;;;;;;;7.51;100.00;103727.91;4995142;28;20034;-71
2021/12/17 08:46:53;;;;;;;54.05;13.45;;;;;;;7.56;100.00;103738.13;4996649;28;20041;-71
2021/12/17 08:49:19;;;;;;;48.55;12.38;;;;;;;7.69;100.00;103745.75;5000400;28;20041;-72
2021/12/17 08:51:47;;;;;;;59.63;14.45;;;;;;;7.69;100.00;103738.56;4991716;28;20085;-72
2021/12/17 08:54:15;;;;;;;58.40;13.95;;;;;;;7.74;100.00;103749.66;4993166;28;20157;-72
2021/12/17 08:56:43;;;;;;;54.10;12.98;;;;;;;7.77;100.00;103743.97;4991755;28;20983;-73
2021/12/17 08:59:09;;;;;;;53.78;12.77;;;;;;;7.85;100.00;103753.91;5000770;28;20064;-72
2021/12/17 09:01:35;;;;;;;47.63;13.60;;;;;;;7.80;100.00;103749.00;4991728;28;20145;-72
2021/12/17 09:04:02;;;;;;;41.47;10.90;;;;;;;7.86;100.00;103756.41;4990739;28;20064;-72
2021/12/17 09:06:28;;;;;;;45.40;10.55;;;;;;;7.85;100.00;103764.59;4991823;28;20061;-72
2021/12/17 09:08:57;;;;;;;43.60;11.70;;;;;;;7.81;100.00;103753.34;5005475;28;20045;-72
2021/12/17 09:11:24;;;;;;;40.30;11.27;;;;;;;7.84;100.00;103752.22;4998240;28;20536;-70
2021/12/17 09:13:50;;;;;;;47.92;11.77;;;;;;;7.88;100.00;103742.88;4991545;28;20068;-70
2021/12/17 09:16:20;;;;;;;45.95;13.68;;;;;;;7.96;100.00;103761.66;4990121;28;20101;-71
2021/12/17 09:18:50;;;;;;;31.38;9.15;;;;;;;7.91;100.00;103755.13;4994917;28;20038;-71
2021/12/17 09:21:19;;;;;;;31.52;9.30;;;;;;;7.92;100.00;103754.13;4995625;28;20283;-70
2021/12/17 09:23:47;;;;;;;42.60;11.20;;;;;;;7.98;100.00;103762.38;4991671;28;20104;-71
2021/12/17 09:26:14;;;;;;;49.42;12.95;;;;;;;7.95;100.00;103764.50;4996582;28;20493;-70
2021/12/17 09:28:40;;;;;;;50.80;12.82;;;;;;;7.88;100.00;103754.41;4991390;28;20120;-70
2021/12/17 09:31:12;;;;;;;51.20;13.38;;;;;;;8.00;100.00;103772.91;4991026;28;20527;-71
2021/12/17 09:33:41;;;;;;;;;;;;;;;8.00;100.00;103768.38;4997438;28;20076;-70
2021/12/17 09:36:09;;;;;;;55.50;13.90;;;;;;;8.09;100.00;103774.63;4999344;28;20062;-69
2021/12/17 09:38:35;;;;;;;45.70;13.30;;;;;;;8.08;100.00;103759.59;5004738;28;20088;-69
2021/12/17 09:41:01;;;;;;;41.90;13.48;;;;;;;8.13;100.00;103767.97;4991770;28;20041;-69
2021/12/17 09:43:36;;;;;;;45.10;13.27;;;;;;;8.25;100.00;103776.56;4993226;28;22355;-69
2021/12/17 09:46:08;;;;;;;46.22;13.63;;;;;;;8.20;100.00;103789.56;4990833;28;20054;-71
2021/12/17 09:48:35;;;;;;;47.05;14.32;;;;;;;8.22;100.00;103792.91;4990683;28;20038;-72
2021/12/17 09:51:02;;;;;;;42.72;12.32;;;;;;;8.19;100.00;103778.03;4991859;28;20033;-72
2021/12/17 09:53:28;;;;;;;38.75;13.07;;;;;;;8.19;100.00;103777.19;4990690;28;20320;-71
2021/12/17 09:55:54;;;;;;;34.28;11.48;;;;;;;8.21;100.00;103786.72;4991502;28;20034;-71
2021/12/17 09:58:19;;;;;;;35.92;10.80;;;;;;;8.19;100.00;103793.25;4999515;28;20559;-72
2021/12/17 10:00:45;;;;;;;33.08;10.55;;;;;;;8.27;100.00;103790.63;4990442;28;20041;-71
2021/12/17 10:03:11;;;;;;;25.90;9.00;;;;;;;8.31;100.00;103798.19;4990995;28;20484;-71
2021/12/17 10:05:40;;;;;;;21.63;8.43;;;;;;;8.31;100.00;103797.34;4994147;28;20040;-71
2021/12/17 10:08:10;;;;;;;20.88;7.50;;;;;;;8.22;100.00;103800.94;4994911;28;20025;-72
2021/12/17 10:10:40;;;;;;;18.30;7.03;;;;;;;8.20;100.00;103808.28;4995227;28;20022;-71
2021/12/17 10:13:09;;;;;;;21.92;8.20;;;;;;;8.17;100.00;103798.75;4991030;28;20045;-71
2021/12/17 10:15:36;;;;;;;18.90;7.63;;;;;;;8.13;100.00;103794.69;5004985;28;20168;-72
2021/12/17 10:18:02;;;;;;;20.52;8.27;;;;;;;8.07;100.00;103800.69;4990446;28;20080;-72
2021/12/17 10:20:43;;;;;;;21.52;8.38;;;;;;;8.11;100.00;103800.22;4990915;28;20061;-71
2021/12/17 10:23:11;;;;;;;17.88;8.00;;;;;;;8.08;100.00;103808.56;4990625;28;20257;-71
2021/12/17 10:25:47;;;;;;;21.88;7.90;;;;;;;8.09;100.00;103794.19;4990892;28;20025;-72
2021/12/17 10:28:13;;;;;;;15.85;7.50;;;;;;;8.02;100.00;103787.78;4989447;28;20033;-72
2021/12/17 10:30:45;;;;;;;16.80;6.70;;;;;;;8.15;100.00;103798.91;4990370;28;20032;-71
2021/12/17 10:33:18;;;;;;;16.60;8.38;;;;;;;8.21;100.00;103805.47;4990244;28;20037;-71
2021/12/17 10:35:50;;;;;;;14.93;7.70;;;;;;;8.15;100.00;103798.91;4996773;28;20676;-71
2021/12/17 10:38:23;;;;;;;15.05;7.03;;;;;;;8.14;100.00;103793.69;4963058;28;20576;-71
2021/12/17 10:41:07;;;;;;;14.43;7.10;;;;;;;8.13;100.00;103798.22;4990494;28;20140;-72
2021/12/17 10:43:40;;;;;;;15.05;6.38;;;;;;;8.13;100.00;103789.34;4997885;28;20040;-71
2021/12/17 10:46:21;;;;;;;14.77;6.60;;;;;;;8.14;100.00;103791.91;4990913;28;20056;-71
2021/12/17 10:48:54;;;;;;;16.30;7.88;;;;;;;8.13;100.00;103787.50;5002591;28;20048;-71
2021/12/17 10:53:57;;;;;;;21.75;8.98;;;;;;;8.18;100.00;103783.53;4991086;28;20150;-71
2021/12/17 10:56:27;;;;;;;20.15;10.02;;;;;;;8.21;100.00;103778.72;4990496;28;20030;-72
2021/12/17 10:59:06;;;;;;;16.48;8.15;;;;;;;8.27;100.00;103780.75;4990912;28;20062;-71
2021/12/17 11:01:45;;;;;;;19.35;8.40;;;;;;;8.32;100.00;103774.94;5002614;28;20034;-71
2021/12/17 11:04:14;;;;;;;19.45;8.82;;;;;;;8.31;100.00;103782.16;5003536;28;22441;-71
2021/12/17 11:06:56;;;;;;;18.67;9.60;;;;;;;8.34;100.00;103770.28;4992560;28;20034;-72
2021/12/17 11:09:49;;;;;;;17.40;8.00;;;;;;;8.24;100.00;103773.06;4994288;28;20382;-72
2021/12/17 11:12:39;;;;;;;17.88;7.72;;;;;;;8.29;100.00;103772.56;4988194;28;20041;-72
2021/12/17 11:15:11;;;;;;;18.00;8.57;;;;;;;8.27;100.00;103775.41;4988398;28;20500;-72
2021/12/17 11:17:41;;;;;;;17.95;9.48;;;;;;;8.33;100.00;103765.94;4988154;28;20446;-71
2021/12/17 11:20:10;;;;;;;19.35;9.25;;;;;;;8.39;100.00;103768.00;5003100;28;20526;-71
2021/12/17 11:22:43;;;;;;;20.50;9.68;;;;;;;8.37;100.00;103767.31;4993806;28;20092;-72
2021/12/17 11:25:09;;;;;;;16.63;8.93;;;;;;;8.37;100.00;103769.97;5003377;28;20029;-71
2021/12/17 11:27:35;;;;;;;18.33;9.70;;;;;;;8.32;100.00;103766.94;4988879;28;20041;-72
2021/12/17 11:30:08;;;;;;;16.33;9.25;;;;;;;8.32;100.00;103766.94;5002403;28;20186;-71
2021/12/17 11:32:35;;;;;;;13.40;7.50;;;;;;;8.33;100.00;103776.63;4986780;28;22380;-71
2021/12/17 11:35:03;;;;;;;13.48;9.15;;;;;;;8.39;100.00;103768.00;4988166;28;20433;-71
2021/12/17 11:37:32;;;;;;;16.90;10.18;;;;;;;8.35;100.00;103763.97;4970753;28;20068;-72
2021/12/17 11:40:10;;;;;;;17.92;10.50;;;;;;;8.36;100.00;103770.97;5006567;28;20049;-72
2021/12/17 11:42:55;;;;;;;16.00;8.68;;;;;;;8.35;100.00;103763.97;4996115;28;20040;-72
2021/12/17 11:45:24;;;;;;;15.70;9.68;;;;;;;8.40;100.00;103758.97;4999605;28;20370;-71
2021/12/17 11:47:54;;;;;;;17.73;10.02;;;;;;;8.39;100.00;103759.97;4988419;28;20503;-71
2021/12/17 11:50:20;;;;;;;14.70;9.50;;;;;;;8.39;100.00;103751.97;5008135;28;20029;-72
2021/12/17 11:52:53;;;;;;;14.48;8.20;;;;;;;8.31;100.00;103754.56;4995318;28;20039;-72
2021/12/17 11:55:35;;;;;;;13.20;7.78;;;;;;;8.27;100.00;103770.06;4998638;28;20103;-71
2021/12/17 11:58:06;;;;;;;13.63;8.15;;;;;;;8.31;100.00;103759.91;5007438;28;20060;-72
2021/12/17 12:00:40;;;;;;;13.25;8.18;;;;;;;8.32;100.00;103774.94;4993816;28;20402;-71
2021/12/17 12:03:24;;;;;;;12.98;7.97;;;;;;;8.27;100.00;103783.44;4992212;28;20244;-71
2021/12/17 12:05:56;;;;;;;15.00;8.98;;;;;;;8.29;100.00;103772.56;5007813;28;20030;-71
2021/12/17 12:08:34;;;;;;;17.90;9.93;;;;;;;8.36;100.00;103785.19;5006814;28;20030;-71
2021/12/17 12:11:05;;;;;;;16.85;9.80;;;;;;;8.30;100.00;103782.28;4993627;28;20052;-71
2021/12/17 12:13:50;;;;;;;21.58;11.07;;;;;;;8.29;100.00;103777.91;4992005;28;20039;-72
2021/12/17 12:16:23;;;;;;;17.02;9.90;;;;;;;8.31;100.00;103782.16;4998006;28;20056;-71
2021/12/17 12:18:50;;;;;;;16.52;9.00;;;;;;;8.27;100.00;103779.94;4993496;28;20038;-70
2021/12/17 12:21:24;;;;;;;15.75;9.55;;;;;;;8.20;100.00;103773.53;5007184;28;20224;-71
2021/12/17 12:23:53;;;;;;;17.70;9.90;;;;;;;8.20;100.00;103779.72;4993286;28;20033;-71
2021/12/17 12:26:23;;;;;;;16.60;9.90;;;;;;;8.21;100.00;103789.41;4992733;28;20057;-71
2021/12/17 12:29:09;;;;;;;22.23;10.43;;;;;;;8.21;100.00;103788.56;4992363;28;20049;-71
2021/12/17 12:31:37;;;;;;;18.13;11.25;;;;;;;8.19;100.00;103787.91;4992921;28;20033;-71
2021/12/17 12:34:06;;;;;;;18.88;12.00;;;;;;;8.21;100.00;103783.22;4992492;28;20611;-71
2021/12/17 12:36:54;;;;;;;20.48;10.60;;;;;;;8.20;100.00;103773.53;5007219;28;20034;-70
2021/12/17 12:39:27;;;;;;;19.35;11.43;;;;;;;8.22;100.00;103776.88;5007228;28;20148;-73
2021/12/17 12:42:04;;;;;;;19.58;10.60;;;;;;;8.19;100.00;103766.50;5006343;28;20033;-73
2021/12/17 12:44:39;;;;;;;19.33;10.50;;;;;;;8.23;100.00;103765.19;4992664;28;20112;-71
2021/12/17 12:47:14;;;;;;;21.25;11.50;;;;;;;8.24;100.00;103766.88;4991725;28;20038;-72
2021/12/17 12:50:10;;;;;;;20.33;11.63;;;;;;;8.22;100.00;103766.16;5006787;28;20061;-70
2021/12/17 12:52:53;;;;;;;21.38;12.07;;;;;;;8.16;100.00;103762.31;5006159;28;20444;-72
2021/12/17 12:55:43;;;;;;;17.17;10.80;;;;;;;8.16;100.00;103762.31;4992435;28;21997;-72
2021/12/17 12:58:21;;;;;;;19.70;11.30;;;;;;;8.17;100.00;103765.81;4989471;28;20037;-72
2021/12/17 13:00:54;;;;;;;20.52;11.38;;;;;;;8.15;100.00;103761.47;5002118;28;20077;-72
2021/12/17 13:03:30;;;;;;;19.95;11.43;;;;;;;8.22;100.00;103766.16;4991343;28;20060;-72
2021/12/17 13:05:59;;;;;;;19.80;10.85;;;;;;;8.18;100.00;103754.13;4997897;28;20139;-71
2021/12/17 13:08:30;;;;;;;20.83;11.48;;;;;;;8.15;100.00;103761.47;4995268;28;20068;-71
2021/12/17 13:11:08;;;;;;;20.98;12.02;;;;;;;8.13;100.00;103763.44;4992904;28;20165;-70
2021/12/17 13:13:40;;;;;;;20.30;11.85;;;;;;;8.22;100.00;103761.66;4989076;28;20696;-70
2021/12/17 13:16:23;;;;;;;20.02;12.23;;;;;;;8.19;100.00;103766.50;4989602;28;20053;-73
2021/12/17 13:24:13;;;;;;;20.30;12.45;;;;;;;8.13;100.00;103759.94;5006278;28;20037;-72
2021/12/17 13:26:52;;;;;;;19.30;11.68;;;;;;;8.13;100.00;103755.44;4990692;28;20080;-72
2021/12/17 13:29:23;;;;;;;22.60;11.30;;;;;;;8.17;100.00;103763.16;5000745;28;20026;-72
2021/12/17 13:31:55;;;;;;;21.33;11.63;;;;;;;8.21;100.00;103753.81;4984184;28;20048;-72
2021/12/17 13:34:32;;;;;;;22.08;13.13;;;;;;;8.14;100.00;103754.47;5006037;28;20499;-72
2021/12/17 13:37:02;;;;;;;21.95;13.07;;;;;;;8.13;100.00;103747.41;5006287;28;20037;-71
2021/12/17 13:39:32;;;;;;;20.83;12.45;;;;;;;8.09;100.00;103756.75;4990085;28;20037;-71
2021/12/17 13:42:01;;;;;;;21.58;12.35;;;;;;;8.07;100.00;103750.72;4990384;28;20446;-72
2021/12/17 13:44:40;;;;;;;22.98;12.13;;;;;;;8.02;100.00;103747.66;4991302;28;20048;-72
2021/12/17 13:47:22;;;;;;;19.08;12.80;;;;;;;8.01;100.00;103742.50;5005764;28;20395;-71
2021/12/17 13:50:00;;;;;;;22.67;13.35;;;;;;;7.98;100.00;103743.66;4991060;28;20061;-71
2021/12/17 13:52:29;;;;;;;22.42;13.65;;;;;;;8.03;100.00;103743.16;4990680;28;20425;-71
2021/12/17 13:54:56;;;;;;;24.00;13.80;;;;;;;7.96;100.00;103740.28;4990306;28;20676;-72
2021/12/17 13:57:24;;;;;;;21.30;12.77;;;;;;;7.99;100.00;103748.00;4980211;28;20053;-72
2021/12/17 13:59:50;;;;;;;23.25;14.40;;;;;;;7.98;100.00;103743.66;4979609;28;20065;-71
2021/12/17 14:02:21;;;;;;;22.60;12.93;;;;;;;7.97;100.00;103751.81;4990505;28;20072;-72
2021/12/17 14:05:03;;;;;;;23.83;13.00;;;;;;;7.97;100.00;103749.97;4993720;28;20036;-71
2021/12/17 14:07:32;;;;;;;23.50;12.98;;;;;;;8.01;100.00;103748.66;5000278;28;20115;-71
2021/12/17 14:10:04;;;;;;;22.25;13.13;;;;;;;8.00;100.00;103746.16;4989090;28;20033;-72
2021/12/17 14:12:33;;;;;;;20.17;12.52;;;;;;;7.98;100.00;103749.00;4990928;28;20069;-72
2021/12/17 14:15:23;;;;;;;20.45;12.40;;;;;;;7.94;100.00;103747.63;4988907;28;20096;-72
2021/12/17 14:17:52;;;;;;;18.73;11.75;;;;;;;7.99;100.00;103742.66;4979743;28;20053;-72
2021/12/17 14:20:24;;;;;;;22.45;13.52;;;;;;;7.92;100.00;103754.97;4988970;28;20068;-71